createdAt,value
2018-03-11T00:01:06.385Z,10.82
2018-03-11T00:02:05.859Z,10.75
2018-03-11T00:03:05.939Z,10.78
2018-03-11T00:04:06.055Z,10.72
2018-03-11T00:05:05.877Z,10.80
2018-03-11T00:06:05.822Z,10.79
2018-03-11T00:07:05.814Z,10.79
2018-03-11T00:08:06.582Z,10.78
2018-03-11T00:09:07.278Z,10.75
2018-03-11T00:10:05.751Z,10.68
2018-03-11T00:11:05.605Z,10.72
2018-03-11T00:13:05.501Z,10.64
2018-03-11T00:14:05.514Z,10.67
2018-03-11T00:16:05.788Z,10.70
2018-03-11T00:17:05.461Z,10.68
2018-03-11T00:18:05.472Z,10.65
2018-03-11T00:19:05.401Z,10.68
2018-03-11T00:20:05.345Z,10.61
2018-03-11T00:22:05.605Z,10.68
2018-03-11T00:23:05.324Z,10.61
2018-03-11T00:24:05.269Z,10.62
2018-03-11T00:25:05.366Z,10.61
2018-03-11T00:26:05.234Z,10.54
2018-03-11T00:27:05.228Z,10.57
2018-03-11T00:28:05.282Z,10.58
2018-03-11T00:29:05.488Z,10.55
2018-03-11T00:30:05.247Z,10.67
2018-03-11T00:31:05.557Z,10.68
2018-03-11T00:32:05.277Z,10.62
2018-03-11T00:33:05.133Z,10.64
2018-03-11T00:34:05.114Z,10.65
2018-03-11T00:35:05.095Z,10.65
2018-03-11T00:36:05.586Z,10.73
2018-03-11T00:37:05.113Z,10.72
2018-03-11T00:38:05.042Z,10.60
2018-03-11T00:39:05.016Z,10.61
2018-03-11T00:40:05.000Z,10.46
2018-03-11T00:41:04.981Z,10.45
2018-03-11T00:42:05.045Z,10.52
2018-03-11T00:43:05.397Z,10.49
2018-03-11T00:44:05.011Z,10.49
2018-03-11T00:45:04.998Z,10.43
2018-03-11T00:46:05.337Z,10.45
2018-03-11T00:47:04.881Z,10.55
2018-03-11T00:48:04.865Z,10.42
2018-03-11T00:49:05.199Z,10.34
2018-03-11T00:50:05.196Z,10.35
2018-03-11T00:51:05.574Z,10.38
2018-03-11T00:52:04.885Z,10.31
2018-03-11T00:53:04.793Z,10.26
2018-03-11T00:54:04.857Z,10.17
2018-03-11T00:55:05.291Z,10.24
2018-03-11T00:56:04.733Z,10.20
2018-03-11T00:57:04.790Z,10.21
2018-03-11T00:58:04.784Z,10.21
2018-03-11T00:59:04.776Z,10.18
2018-03-11T01:00:04.661Z,10.23
2018-03-11T01:01:04.996Z,10.21
2018-03-11T01:02:04.624Z,10.21
2018-03-11T01:03:04.610Z,10.14
2018-03-11T01:04:04.594Z,10.10
2018-03-11T01:05:04.573Z,10.05
2018-03-11T01:06:04.559Z,10.08
2018-03-11T01:07:04.901Z,9.99
2018-03-11T01:08:04.529Z,9.98
2018-03-11T01:09:04.516Z,9.99
2018-03-11T01:10:04.497Z,10.01
2018-03-11T01:11:04.474Z,9.94
2018-03-11T01:12:04.464Z,9.93
2018-03-11T01:13:04.793Z,9.87
2018-03-11T01:14:04.428Z,9.90
2018-03-11T01:15:04.437Z,9.83
2018-03-11T01:16:04.389Z,9.75
2018-03-11T01:17:04.379Z,9.85
2018-03-11T01:18:04.358Z,9.80
2018-03-11T01:19:04.790Z,9.83
2018-03-11T01:20:04.327Z,9.75
2018-03-11T01:21:04.317Z,9.80
2018-03-11T01:22:04.884Z,9.83
2018-03-11T01:23:04.272Z,9.78
2018-03-11T01:24:04.253Z,9.73
2018-03-11T01:25:04.590Z,9.80
2018-03-11T01:26:04.293Z,9.80
2018-03-11T01:27:04.194Z,9.72
2018-03-11T01:28:04.183Z,9.72
2018-03-11T01:29:04.245Z,9.77
2018-03-11T01:30:04.223Z,9.75
2018-03-11T01:31:04.264Z,9.65
2018-03-11T01:32:04.485Z,9.69
2018-03-11T01:33:04.174Z,9.66
2018-03-11T01:34:04.123Z,9.69
2018-03-11T01:35:04.192Z,9.69
2018-03-11T01:36:04.819Z,9.67
2018-03-11T01:38:04.349Z,9.73
2018-03-11T01:39:03.987Z,9.80
2018-03-11T01:40:03.968Z,9.77
2018-03-11T01:41:03.948Z,9.78
2018-03-11T01:42:03.932Z,9.77
2018-03-11T01:43:03.925Z,9.87
2018-03-11T01:44:03.948Z,9.81
2018-03-11T01:45:04.182Z,9.84
2018-03-11T01:46:03.862Z,9.81
2018-03-11T01:47:04.070Z,9.77
2018-03-11T01:48:03.918Z,9.75
2018-03-11T01:49:03.805Z,9.83
2018-03-11T01:50:03.848Z,9.73
2018-03-11T01:51:03.781Z,9.81
2018-03-11T01:52:04.068Z,9.87
2018-03-11T01:53:03.742Z,9.77
2018-03-11T01:54:03.726Z,9.75
2018-03-11T01:55:03.709Z,9.77
2018-03-11T01:56:03.865Z,9.93
2018-03-11T01:57:03.670Z,9.93
2018-03-11T01:58:03.647Z,9.96
2018-03-11T01:59:03.947Z,9.94
2018-03-11T02:00:03.614Z,9.93
2018-03-11T02:01:03.594Z,9.94
2018-03-11T02:02:04.069Z,9.90
2018-03-11T02:03:03.573Z,9.91
2018-03-11T02:04:03.553Z,9.87
2018-03-11T02:05:03.617Z,9.84
2018-03-11T02:06:03.813Z,9.81
2018-03-11T02:07:03.487Z,9.69
2018-03-11T02:08:03.606Z,9.70
2018-03-11T02:09:03.538Z,9.59
2018-03-11T02:10:03.543Z,9.63
2018-03-11T02:11:03.495Z,9.65
2018-03-11T02:12:03.481Z,9.62
2018-03-11T02:13:03.767Z,9.52
2018-03-11T02:14:03.495Z,9.48
2018-03-11T02:15:03.349Z,9.47
2018-03-11T02:16:03.385Z,9.47
2018-03-11T02:17:03.316Z,9.40
2018-03-11T02:18:03.304Z,9.40
2018-03-11T02:19:03.579Z,9.41
2018-03-11T02:20:03.312Z,9.42
2018-03-11T02:21:03.346Z,9.47
2018-03-11T02:22:03.364Z,9.44
2018-03-11T02:23:03.202Z,9.42
2018-03-11T02:24:03.181Z,9.42
2018-03-11T02:25:03.469Z,9.40
2018-03-11T02:26:03.196Z,9.41
2018-03-11T02:27:03.279Z,9.42
2018-03-11T02:28:03.108Z,9.42
2018-03-11T02:29:03.200Z,9.41
2018-03-11T02:31:03.372Z,9.36
2018-03-11T02:32:03.097Z,9.40
2018-03-11T02:33:03.033Z,9.24
2018-03-11T02:34:03.006Z,9.32
2018-03-11T02:35:03.000Z,9.30
2018-03-11T02:36:02.964Z,9.29
2018-03-11T02:37:03.254Z,9.15
2018-03-11T02:38:02.981Z,9.09
2018-03-11T02:39:02.910Z,9.12
2018-03-11T02:40:02.897Z,9.12
2018-03-11T02:41:02.881Z,9.18
2018-03-11T02:42:02.856Z,9.16
2018-03-11T02:43:03.140Z,9.08
2018-03-11T02:44:02.870Z,9.12
2018-03-11T02:45:02.807Z,9.15
2018-03-11T02:46:02.782Z,9.12
2018-03-11T02:47:02.764Z,9.14
2018-03-11T02:48:02.752Z,9.09
2018-03-11T02:49:03.112Z,9.14
2018-03-11T02:50:02.764Z,9.09
2018-03-11T02:51:02.698Z,9.14
2018-03-11T02:52:02.676Z,9.08
2018-03-11T02:53:02.660Z,9.12
2018-03-11T02:54:02.645Z,9.04
2018-03-11T02:55:02.940Z,9.12
2018-03-11T02:56:02.662Z,9.06
2018-03-11T02:57:02.593Z,9.15
2018-03-11T02:58:02.580Z,9.16
2018-03-11T02:59:02.557Z,9.12
2018-03-11T03:00:02.610Z,9.12
2018-03-11T03:01:02.524Z,9.14
2018-03-11T03:02:02.853Z,9.19
2018-03-11T03:03:02.524Z,9.24
2018-03-11T03:04:02.540Z,9.14
2018-03-11T03:05:02.450Z,9.29
2018-03-11T03:06:02.425Z,9.23
2018-03-11T03:07:02.410Z,9.34
2018-03-11T03:08:02.444Z,9.37
2018-03-11T03:09:02.672Z,9.40
2018-03-11T03:10:02.351Z,9.40
2018-03-11T03:11:02.422Z,9.44
2018-03-11T03:12:02.393Z,9.45
2018-03-11T03:13:02.382Z,9.42
2018-03-11T03:14:02.401Z,9.42
2018-03-11T03:15:02.348Z,9.48
2018-03-11T03:16:02.622Z,9.47
2018-03-11T03:17:02.297Z,9.40
2018-03-11T03:18:02.202Z,9.45
2018-03-11T03:19:02.187Z,9.51
2018-03-11T03:20:02.225Z,9.55
2018-03-11T03:21:02.228Z,9.59
2018-03-11T03:22:02.214Z,9.60
2018-03-11T03:23:02.500Z,9.63
2018-03-11T03:24:02.094Z,9.65
2018-03-11T03:25:02.171Z,9.70
2018-03-11T03:26:02.106Z,9.73
2018-03-11T03:27:02.046Z,9.81
2018-03-11T03:28:02.027Z,9.77
2018-03-11T03:29:02.013Z,9.73
2018-03-11T03:30:02.297Z,9.72
2018-03-11T03:31:01.980Z,9.69
2018-03-11T03:32:02.012Z,9.80
2018-03-11T03:33:01.943Z,9.66
2018-03-11T03:34:01.912Z,9.78
2018-03-11T03:35:01.894Z,9.75
2018-03-11T03:36:01.886Z,9.70
2018-03-11T03:37:02.167Z,9.63
2018-03-11T03:38:01.905Z,9.66
2018-03-11T03:39:01.841Z,9.69
2018-03-11T03:40:01.824Z,9.59
2018-03-11T03:41:01.796Z,9.54
2018-03-11T03:42:01.775Z,9.54
2018-03-11T03:43:02.051Z,9.62
2018-03-11T03:44:01.797Z,9.57
2018-03-11T03:45:01.722Z,9.47
2018-03-11T03:46:01.697Z,9.54
2018-03-11T03:47:01.682Z,9.54
2018-03-11T03:48:01.674Z,9.50
2018-03-11T03:49:01.965Z,9.47
2018-03-11T03:50:01.683Z,9.42
2018-03-11T03:51:01.625Z,9.42
2018-03-11T03:52:01.604Z,9.45
2018-03-11T03:53:01.582Z,9.26
2018-03-11T03:54:01.562Z,9.33
2018-03-11T03:55:01.846Z,9.33
2018-03-11T03:56:01.578Z,9.26
2018-03-11T03:57:01.525Z,9.32
2018-03-11T03:58:01.502Z,9.37
2018-03-11T03:59:01.465Z,9.34
2018-03-11T04:00:01.530Z,9.27
2018-03-11T04:01:01.737Z,9.33
2018-03-11T04:02:01.476Z,9.27
2018-03-11T04:03:01.401Z,9.42
2018-03-11T04:04:01.396Z,9.41
2018-03-11T04:05:01.369Z,9.42
2018-03-11T04:06:01.365Z,9.40
2018-03-11T04:07:01.634Z,9.41
2018-03-11T04:08:01.373Z,9.29
2018-03-11T04:09:01.296Z,9.40
2018-03-11T04:10:01.278Z,9.33
2018-03-11T04:11:01.260Z,9.40
2018-03-11T04:12:01.240Z,9.37
2018-03-11T04:13:01.524Z,9.41
2018-03-11T04:14:01.256Z,9.36
2018-03-11T04:15:01.188Z,9.47
2018-03-11T04:16:01.281Z,9.36
2018-03-11T04:17:01.157Z,9.30
2018-03-11T04:18:01.206Z,9.24
2018-03-11T04:19:01.498Z,9.37
2018-03-11T04:20:01.152Z,9.41
2018-03-11T04:21:01.156Z,9.41
2018-03-11T04:22:01.319Z,9.42
2018-03-11T04:23:01.039Z,9.50
2018-03-11T04:24:01.025Z,9.57
2018-03-11T04:25:01.006Z,9.54
2018-03-11T04:26:01.339Z,9.50
2018-03-11T04:27:00.973Z,9.45
2018-03-11T04:28:01.035Z,9.60
2018-03-11T04:29:01.021Z,9.62
2018-03-11T04:30:00.997Z,9.54
2018-03-11T04:31:00.976Z,9.62
2018-03-11T04:32:01.058Z,9.57
2018-03-11T04:33:01.165Z,9.52
2018-03-11T04:34:00.855Z,9.59
2018-03-11T04:35:00.838Z,9.57
2018-03-11T04:36:00.819Z,9.65
2018-03-11T04:37:00.806Z,9.55
2018-03-11T04:38:00.837Z,9.59
2018-03-11T04:39:00.767Z,9.47
2018-03-11T04:40:01.088Z,9.57
2018-03-11T04:41:00.724Z,9.57
2018-03-11T04:42:00.714Z,9.52
2018-03-11T04:43:00.710Z,9.47
2018-03-11T04:44:00.853Z,9.51
2018-03-11T04:45:00.685Z,9.55
2018-03-11T04:46:00.639Z,9.50
2018-03-11T04:47:00.947Z,9.60
2018-03-11T04:48:00.610Z,9.60
2018-03-11T04:49:00.585Z,9.57
2018-03-11T04:50:00.645Z,9.57
2018-03-11T04:51:00.558Z,9.62
2018-03-11T04:52:00.533Z,9.62
2018-03-11T04:53:00.514Z,9.62
2018-03-11T04:54:00.795Z,9.57
2018-03-11T04:56:00.517Z,9.60
2018-03-11T04:57:00.450Z,9.66
2018-03-11T04:58:00.506Z,9.65
2018-03-11T04:59:00.417Z,9.63
2018-03-11T05:00:00.401Z,9.63
2018-03-11T05:01:00.687Z,9.60
2018-03-11T05:02:00.413Z,9.62
2018-03-11T05:03:00.345Z,9.62
2018-03-11T05:04:00.334Z,9.59
2018-03-11T05:05:00.312Z,9.69
2018-03-11T05:06:00.366Z,9.77
2018-03-11T05:07:00.268Z,9.83
2018-03-11T05:08:00.605Z,9.78
2018-03-11T05:09:00.237Z,9.78
2018-03-11T05:10:00.218Z,9.81
2018-03-11T05:11:00.222Z,9.81
2018-03-11T05:12:00.189Z,9.75
2018-03-11T05:13:00.165Z,9.75
2018-03-11T05:14:00.504Z,9.81
2018-03-11T05:15:00.250Z,9.77
2018-03-11T05:16:00.220Z,9.75
2018-03-11T05:17:00.205Z,9.67
2018-03-11T05:18:00.179Z,9.69
2018-03-11T05:19:00.067Z,9.66
2018-03-11T05:20:00.397Z,9.66
2018-03-11T05:21:00.034Z,9.60
2018-03-11T05:22:00.013Z,9.60
2018-03-11T05:22:59.989Z,9.47
2018-03-11T05:23:59.971Z,9.54
2018-03-11T05:26:00.288Z,9.52
2018-03-11T05:26:59.928Z,9.42
2018-03-11T05:28:00.013Z,9.42
2018-03-11T05:28:59.944Z,9.41
2018-03-11T05:29:59.870Z,9.30
2018-03-11T05:30:59.856Z,9.40
2018-03-11T05:32:00.271Z,9.26
2018-03-11T05:32:59.898Z,9.18
2018-03-11T05:33:59.798Z,9.12
2018-03-11T05:34:59.861Z,9.03
2018-03-11T05:35:59.764Z,8.88
2018-03-11T05:36:59.758Z,8.90
2018-03-11T05:38:00.091Z,8.81
2018-03-11T05:38:59.730Z,8.99
2018-03-11T05:39:59.789Z,9.03
2018-03-11T05:40:59.685Z,9.08
2018-03-11T05:41:59.746Z,9.11
2018-03-11T05:42:59.658Z,9.16
2018-03-11T05:44:00.005Z,9.34
2018-03-11T05:44:59.749Z,9.37
2018-03-11T05:45:59.670Z,9.54
2018-03-11T05:46:59.662Z,9.59
2018-03-11T05:47:59.635Z,9.45
2018-03-11T05:48:59.619Z,9.62
2018-03-11T05:49:59.908Z,9.50
2018-03-11T05:50:59.505Z,9.54
2018-03-11T05:51:59.483Z,9.44
2018-03-11T05:52:59.478Z,9.30
2018-03-11T05:53:59.458Z,9.14
2018-03-11T05:54:59.436Z,9.08
2018-03-11T05:55:59.473Z,9.09
2018-03-11T05:56:59.707Z,9.14
2018-03-11T05:57:59.380Z,9.09
2018-03-11T05:58:59.370Z,9.15
2018-03-11T05:59:59.385Z,9.15
2018-03-11T06:00:59.339Z,9.09
2018-03-11T06:01:59.466Z,9.12
2018-03-11T06:02:59.377Z,9.27
2018-03-11T06:03:59.650Z,9.41
2018-03-11T06:04:59.254Z,9.41
2018-03-11T06:05:59.236Z,9.52
2018-03-11T06:06:59.297Z,9.57
2018-03-11T06:07:59.349Z,9.62
2018-03-11T06:08:59.184Z,9.63
2018-03-11T06:09:59.252Z,9.70
2018-03-11T06:10:59.452Z,9.72
2018-03-11T06:11:59.216Z,9.77
2018-03-11T06:12:59.113Z,9.80
2018-03-11T06:13:59.144Z,9.80
2018-03-11T06:14:59.087Z,9.85
2018-03-11T06:15:59.134Z,9.84
2018-03-11T06:17:59.419Z,9.96
2018-03-11T06:18:59.005Z,9.99
2018-03-11T06:19:59.116Z,10.02
2018-03-11T06:20:59.061Z,10.10
2018-03-11T06:21:58.961Z,10.16
2018-03-11T06:22:59.013Z,10.23
2018-03-11T06:23:59.002Z,10.18
2018-03-11T06:24:59.206Z,10.28
2018-03-11T06:25:58.941Z,10.24
2018-03-11T06:26:58.882Z,10.36
2018-03-11T06:27:58.930Z,10.39
2018-03-11T06:28:58.838Z,10.36
2018-03-11T06:29:58.825Z,10.38
2018-03-11T06:30:58.796Z,10.35
2018-03-11T06:31:59.129Z,10.34
2018-03-11T06:32:58.764Z,10.43
2018-03-11T06:33:58.743Z,10.45
2018-03-11T06:34:58.724Z,10.39
2018-03-11T06:35:58.832Z,10.52
2018-03-11T06:36:58.708Z,10.54
2018-03-11T06:37:58.891Z,10.55
2018-03-11T06:38:59.101Z,10.48
2018-03-11T06:39:58.659Z,10.46
2018-03-11T06:40:58.708Z,10.57
2018-03-11T06:41:58.686Z,10.49
2018-03-11T06:42:58.671Z,10.60
2018-03-11T06:44:58.940Z,10.61
2018-03-11T06:45:58.623Z,10.62
2018-03-11T06:46:58.609Z,10.68
2018-03-11T06:47:58.508Z,10.68
2018-03-11T06:48:58.501Z,10.72
2018-03-11T06:49:58.534Z,10.67
2018-03-11T06:50:58.763Z,10.82
2018-03-11T06:51:58.449Z,10.83
2018-03-11T06:52:58.429Z,10.68
2018-03-11T06:53:58.413Z,10.72
2018-03-11T06:54:58.529Z,10.76
2018-03-11T06:55:58.456Z,10.76
2018-03-11T06:56:58.664Z,10.76
2018-03-11T06:57:58.342Z,10.90
2018-03-11T06:58:58.321Z,10.78
2018-03-11T06:59:58.311Z,10.85
2018-03-11T07:00:58.292Z,11.01
2018-03-11T07:01:58.372Z,10.93
2018-03-11T07:02:58.559Z,10.98
2018-03-11T07:03:58.238Z,11.11
2018-03-11T07:04:58.229Z,10.98
2018-03-11T07:05:58.224Z,11.09
2018-03-11T07:06:58.190Z,11.08
2018-03-11T07:07:58.237Z,11.13
2018-03-11T07:08:58.285Z,11.09
2018-03-11T07:09:58.252Z,11.19
2018-03-11T07:10:59.328Z,11.15
2018-03-11T07:11:58.114Z,11.08
2018-03-11T07:12:58.097Z,11.11
2018-03-11T07:13:58.137Z,11.16
2018-03-11T07:14:58.369Z,11.33
2018-03-11T07:15:58.059Z,11.30
2018-03-11T07:16:58.042Z,11.30
2018-03-11T07:17:58.027Z,11.41
2018-03-11T07:18:58.020Z,11.48
2018-03-11T07:19:58.038Z,11.52
2018-03-11T07:20:57.992Z,11.62
2018-03-11T07:22:58.290Z,11.71
2018-03-11T07:23:57.954Z,11.74
2018-03-11T07:24:57.929Z,11.84
2018-03-11T07:25:57.945Z,11.80
2018-03-11T07:26:57.879Z,11.88
2018-03-11T07:27:57.863Z,11.88
2018-03-11T07:28:57.847Z,11.95
2018-03-11T07:29:58.127Z,12.00
2018-03-11T07:30:57.931Z,12.04
2018-03-11T07:31:57.916Z,12.04
2018-03-11T07:32:57.785Z,12.13
2018-03-11T07:33:57.770Z,12.32
2018-03-11T07:34:57.748Z,12.53
2018-03-11T07:35:57.848Z,12.48
2018-03-11T07:36:58.025Z,12.61
2018-03-11T07:37:57.752Z,12.53
2018-03-11T07:39:57.673Z,12.38
2018-03-11T07:40:57.660Z,12.91
2018-03-11T07:41:57.648Z,13.53
2018-03-11T07:42:57.635Z,13.80
2018-03-11T07:43:57.973Z,13.90
2018-03-11T07:44:57.611Z,14.31
2018-03-11T07:45:57.647Z,14.52
2018-03-11T07:46:57.589Z,14.19
2018-03-11T07:47:57.567Z,14.22
2018-03-11T07:48:57.546Z,14.33
2018-03-11T07:49:57.584Z,14.30
2018-03-11T07:50:57.823Z,14.44
2018-03-11T07:51:57.514Z,14.58
2018-03-11T07:52:57.484Z,14.73
2018-03-11T07:53:57.475Z,14.74
2018-03-11T07:54:57.467Z,14.77
2018-03-11T07:55:57.500Z,15.10
2018-03-11T07:56:57.450Z,15.08
2018-03-11T07:58:57.404Z,15.58
2018-03-11T07:59:57.471Z,15.73
2018-03-11T08:00:57.408Z,15.32
2018-03-11T08:01:57.488Z,15.26
2018-03-11T08:02:57.429Z,15.48
2018-03-11T08:03:57.414Z,15.87
2018-03-11T08:04:57.703Z,16.14
2018-03-11T08:05:57.388Z,15.88
2018-03-11T08:06:57.303Z,15.98
2018-03-11T08:07:57.332Z,15.95
2018-03-11T08:08:57.272Z,16.16
2018-03-11T08:09:57.259Z,16.09
2018-03-11T08:10:57.551Z,15.87
2018-03-11T08:12:57.226Z,16.22
2018-03-11T08:13:57.258Z,16.46
2018-03-11T08:14:57.201Z,16.61
2018-03-11T08:15:57.190Z,16.55
2018-03-11T08:16:57.491Z,15.98
2018-03-11T08:17:57.168Z,16.37
2018-03-11T08:18:57.154Z,15.83
2018-03-11T08:21:57.167Z,16.54
2018-03-11T08:22:57.106Z,16.65
2018-03-11T08:23:57.401Z,16.73
2018-03-11T08:24:57.091Z,16.69
2018-03-11T08:25:57.077Z,16.95
2018-03-11T08:26:57.064Z,17.27
2018-03-11T08:27:57.102Z,17.09
2018-03-11T08:28:57.039Z,17.25
2018-03-11T08:29:57.328Z,17.16
2018-03-11T08:30:57.020Z,17.02
2018-03-11T08:31:57.007Z,16.46
2018-03-11T08:32:57.004Z,16.32
2018-03-11T08:33:57.133Z,16.40
2018-03-11T08:34:56.980Z,16.18
2018-03-11T08:35:57.265Z,15.93
2018-03-11T08:36:56.951Z,16.26
2018-03-11T08:37:56.944Z,16.09
2018-03-11T08:38:56.930Z,16.26
2018-03-11T08:39:56.972Z,16.51
2018-03-11T08:40:56.918Z,16.74
2018-03-11T08:41:57.207Z,16.88
2018-03-11T08:42:56.895Z,16.76
2018-03-11T08:43:56.888Z,16.58
2018-03-11T08:44:56.868Z,16.47
2018-03-11T08:45:56.908Z,16.44
2018-03-11T08:47:57.139Z,16.25
2018-03-11T08:48:56.827Z,16.47
2018-03-11T08:49:56.822Z,16.14
2018-03-11T08:50:56.820Z,16.21
2018-03-11T08:51:56.855Z,16.21
2018-03-11T08:52:56.803Z,16.18
2018-03-11T08:53:56.822Z,16.40
2018-03-11T08:54:57.080Z,16.62
2018-03-11T08:55:56.816Z,16.49
2018-03-11T08:56:56.756Z,16.57
2018-03-11T08:57:56.784Z,16.44
2018-03-11T08:58:56.804Z,16.51
2018-03-11T08:59:56.777Z,16.52
2018-03-11T09:00:56.705Z,16.94
2018-03-11T09:01:57.053Z,17.25
2018-03-11T09:02:56.776Z,17.35
2018-03-11T09:03:56.725Z,17.66
2018-03-11T09:04:56.663Z,18.13
2018-03-11T09:05:56.703Z,18.28
2018-03-11T09:06:56.679Z,17.69
2018-03-11T09:07:56.700Z,18.06
2018-03-11T09:09:02.189Z,18.11
2018-03-11T09:09:56.662Z,18.41
2018-03-11T09:10:56.615Z,19.12
2018-03-11T09:11:56.591Z,19.17
2018-03-11T09:12:56.581Z,18.96
2018-03-11T09:13:56.740Z,18.24
2018-03-11T09:15:56.913Z,17.13
2018-03-11T09:16:56.624Z,17.57
2018-03-11T09:17:56.552Z,17.91
2018-03-11T09:18:56.543Z,17.69
2018-03-11T09:19:56.611Z,17.22
2018-03-11T09:20:56.590Z,17.53
2018-03-11T09:21:56.851Z,18.12
2018-03-11T09:22:56.492Z,17.90
2018-03-11T09:23:56.568Z,17.57
2018-03-11T09:24:56.556Z,17.99
2018-03-11T09:25:56.467Z,18.08
2018-03-11T09:26:56.463Z,18.09
2018-03-11T09:27:56.512Z,17.46
2018-03-11T09:28:56.753Z,17.63
2018-03-11T09:29:56.541Z,17.34
2018-03-11T09:30:56.537Z,17.17
2018-03-11T09:32:56.529Z,17.63
2018-03-11T09:33:56.479Z,17.69
2018-03-11T09:34:56.402Z,17.57
2018-03-11T09:35:56.757Z,18.34
2018-03-11T09:36:56.380Z,19.13
2018-03-11T09:38:56.360Z,19.96
2018-03-11T09:39:56.408Z,19.93
2018-03-11T09:40:56.344Z,19.71
2018-03-11T09:42:56.705Z,19.67
2018-03-11T09:43:56.327Z,19.84
2018-03-11T09:44:56.328Z,19.45
2018-03-11T09:46:56.450Z,19.04
2018-03-11T09:47:56.298Z,19.08
2018-03-11T09:48:56.598Z,18.49
2018-03-11T09:49:56.305Z,18.01
2018-03-11T09:50:56.266Z,18.15
2018-03-11T09:51:56.262Z,17.78
2018-03-11T09:52:56.534Z,17.94
2018-03-11T09:53:56.258Z,18.24
2018-03-11T09:54:56.637Z,17.86
2018-03-11T09:55:56.233Z,17.17
2018-03-11T09:56:56.267Z,17.09
2018-03-11T09:57:56.212Z,17.16
2018-03-11T09:58:56.255Z,17.24
2018-03-11T09:59:56.198Z,17.52
2018-03-11T10:00:56.510Z,17.73
2018-03-11T10:01:56.202Z,17.99
2018-03-11T10:02:56.183Z,18.08
2018-03-11T10:04:56.210Z,17.96
2018-03-11T10:05:56.173Z,17.76
2018-03-11T10:06:56.451Z,17.65
2018-03-11T10:07:56.147Z,18.20
2018-03-11T10:08:56.135Z,19.01
2018-03-11T10:09:56.134Z,19.45
2018-03-11T10:11:56.652Z,20.42
2018-03-11T10:12:56.403Z,19.67
2018-03-11T10:13:56.086Z,19.75
2018-03-11T10:14:56.081Z,19.94
2018-03-11T10:15:56.071Z,20.56
2018-03-11T10:16:56.126Z,19.77
2018-03-11T10:17:56.058Z,19.09
2018-03-11T10:18:56.408Z,18.93
2018-03-11T10:20:56.046Z,19.44
2018-03-11T10:21:56.076Z,19.42
2018-03-11T10:22:56.088Z,19.38
2018-03-11T10:23:56.022Z,18.82
2018-03-11T10:24:56.321Z,19.45
2018-03-11T10:25:56.006Z,19.00
2018-03-11T10:26:55.997Z,19.63
2018-03-11T10:27:56.008Z,19.97
2018-03-11T10:28:56.042Z,20.50
2018-03-11T10:29:55.977Z,19.97
2018-03-11T10:30:55.984Z,19.93
2018-03-11T10:32:56.046Z,19.62
2018-03-11T10:33:55.947Z,19.92
2018-03-11T10:34:56.004Z,20.00
2018-03-11T10:35:56.019Z,19.94
2018-03-11T10:36:56.312Z,20.00
2018-03-11T10:37:56.377Z,19.30
2018-03-11T10:38:55.929Z,19.31
2018-03-11T10:39:56.235Z,19.67
2018-03-11T10:40:55.963Z,19.70
2018-03-11T10:42:56.143Z,20.15
2018-03-11T10:43:55.888Z,20.25
2018-03-11T10:44:56.191Z,20.14
2018-03-11T10:45:55.882Z,21.10
2018-03-11T10:46:55.920Z,21.84
2018-03-11T10:47:55.860Z,21.58
2018-03-11T10:48:55.872Z,19.84
2018-03-11T10:49:55.853Z,19.07
2018-03-11T10:50:55.923Z,18.17
2018-03-11T10:52:56.184Z,18.31
2018-03-11T10:53:55.926Z,18.38
2018-03-11T10:54:55.828Z,18.21
2018-03-11T10:55:55.819Z,17.68
2018-03-11T10:56:55.819Z,18.85
2018-03-11T10:57:55.811Z,19.64
2018-03-11T10:58:55.856Z,19.63
2018-03-11T10:59:56.096Z,19.59
2018-03-11T11:00:55.911Z,19.22
2018-03-11T11:02:55.865Z,18.78
2018-03-11T11:03:55.849Z,18.60
2018-03-11T11:04:55.816Z,18.88
2018-03-11T11:05:55.763Z,19.17
2018-03-11T11:06:56.055Z,18.71
2018-03-11T11:07:55.755Z,17.99
2018-03-11T11:08:55.742Z,18.12
2018-03-11T11:09:55.721Z,18.20
2018-03-11T11:10:55.780Z,18.94
2018-03-11T11:11:55.707Z,19.42
2018-03-11T11:12:56.003Z,19.78
2018-03-11T11:13:55.694Z,19.56
2018-03-11T11:14:55.695Z,20.53
2018-03-11T11:15:55.688Z,19.19
2018-03-11T11:16:55.723Z,18.45
2018-03-11T11:18:55.664Z,18.01
2018-03-11T11:19:55.959Z,18.18
2018-03-11T11:20:55.654Z,18.36
2018-03-11T11:21:55.664Z,18.45
2018-03-11T11:22:55.686Z,17.91
2018-03-11T11:23:55.631Z,17.79
2018-03-11T11:24:55.624Z,18.02
2018-03-11T11:25:55.920Z,18.56
2018-03-11T11:26:55.621Z,19.92
2018-03-11T11:27:55.600Z,20.04
2018-03-11T11:28:55.656Z,20.26
2018-03-11T11:29:55.589Z,20.04
2018-03-11T11:30:55.859Z,20.74
2018-03-11T11:31:55.877Z,21.28
2018-03-11T11:32:55.566Z,21.82
2018-03-11T11:33:55.642Z,21.96
2018-03-11T11:34:55.599Z,21.08
2018-03-11T11:35:55.627Z,20.36
2018-03-11T11:36:55.535Z,19.57
2018-03-11T11:37:55.922Z,19.49
2018-03-11T11:38:55.533Z,19.32
2018-03-11T11:39:55.568Z,18.83
2018-03-11T11:40:56.395Z,18.86
2018-03-11T11:41:55.576Z,18.58
2018-03-11T11:42:55.583Z,18.56
2018-03-11T11:43:55.781Z,18.33
2018-03-11T11:44:55.497Z,18.85
2018-03-11T11:45:55.555Z,19.09
2018-03-11T11:46:55.515Z,19.42
2018-03-11T11:50:55.743Z,20.15
2018-03-11T11:51:55.484Z,19.75
2018-03-11T11:52:55.533Z,19.45
2018-03-11T11:53:55.429Z,19.19
2018-03-11T11:54:55.415Z,19.50
2018-03-11T11:55:55.457Z,19.81
2018-03-11T11:56:55.758Z,19.75
2018-03-11T11:57:55.394Z,19.81
2018-03-11T11:58:55.485Z,20.09
2018-03-11T11:59:55.380Z,20.07
2018-03-11T12:00:55.377Z,19.93
2018-03-11T12:01:55.366Z,19.54
2018-03-11T12:02:55.663Z,20.39
2018-03-11T12:03:55.361Z,19.92
2018-03-11T12:04:55.400Z,20.29
2018-03-11T12:05:55.391Z,20.33
2018-03-11T12:06:55.334Z,20.77
2018-03-11T12:07:55.328Z,20.55
2018-03-11T12:08:55.323Z,20.07
2018-03-11T12:09:55.619Z,19.22
2018-03-11T12:10:55.369Z,18.85
2018-03-11T12:11:55.312Z,18.71
2018-03-11T12:12:55.309Z,18.48
2018-03-11T12:13:55.293Z,18.51
2018-03-11T12:14:55.301Z,18.61
2018-03-11T12:15:55.283Z,19.31
2018-03-11T12:16:55.625Z,19.26
2018-03-11T12:17:55.332Z,18.89
2018-03-11T12:18:55.257Z,18.71
2018-03-11T12:19:55.250Z,18.56
2018-03-11T12:20:55.244Z,18.42
2018-03-11T12:21:55.276Z,18.36
2018-03-11T12:22:55.290Z,18.21
2018-03-11T12:23:55.551Z,18.08
2018-03-11T12:24:55.222Z,18.08
2018-03-11T12:25:55.216Z,17.84
2018-03-11T12:26:55.205Z,17.78
2018-03-11T12:27:55.215Z,17.69
2018-03-11T12:28:55.369Z,17.54
2018-03-11T12:29:55.183Z,17.75
2018-03-11T12:30:55.478Z,17.46
2018-03-11T12:31:55.170Z,17.50
2018-03-11T12:32:55.154Z,17.47
2018-03-11T12:33:55.151Z,17.35
2018-03-11T12:34:55.188Z,17.37
2018-03-11T12:35:55.137Z,17.22
2018-03-11T12:36:55.429Z,17.14
2018-03-11T12:37:55.128Z,17.14
2018-03-11T12:38:55.115Z,17.12
2018-03-11T12:39:55.097Z,17.13
2018-03-11T12:40:55.838Z,17.14
2018-03-11T12:41:55.088Z,17.13
2018-03-11T12:42:55.146Z,17.16
2018-03-11T12:43:55.369Z,17.13
2018-03-11T12:44:55.063Z,17.02
2018-03-11T12:45:55.042Z,17.09
2018-03-11T12:46:55.083Z,17.07
2018-03-11T12:47:55.104Z,17.17
2018-03-11T12:48:55.024Z,17.20
2018-03-11T12:49:55.010Z,17.32
2018-03-11T12:50:55.305Z,17.25
2018-03-11T12:51:54.994Z,17.19
2018-03-11T12:52:55.293Z,17.06
2018-03-11T12:53:54.981Z,16.97
2018-03-11T12:54:54.964Z,17.09
2018-03-11T12:55:54.955Z,17.02
2018-03-11T12:56:54.946Z,17.14
2018-03-11T12:57:55.256Z,17.20
2018-03-11T12:58:55.042Z,17.41
2018-03-11T12:59:54.925Z,17.38
2018-03-11T13:00:54.921Z,17.41
2018-03-11T13:01:54.893Z,17.69
2018-03-11T13:02:54.957Z,17.79
2018-03-11T13:03:55.169Z,18.11
2018-03-11T13:04:54.995Z,18.18
2018-03-11T13:05:54.943Z,18.34
2018-03-11T13:06:54.847Z,18.68
2018-03-11T13:07:54.850Z,18.74
2018-03-11T13:10:55.316Z,19.50
2018-03-11T13:11:54.798Z,18.79
2018-03-11T13:12:54.849Z,18.24
2018-03-11T13:13:54.781Z,17.99
2018-03-11T13:14:54.788Z,18.13
2018-03-11T13:15:54.763Z,18.21
2018-03-11T13:16:55.106Z,18.03
2018-03-11T13:17:54.747Z,17.93
2018-03-11T13:18:54.753Z,17.83
2018-03-11T13:19:54.743Z,17.63
2018-03-11T13:20:54.772Z,17.73
2018-03-11T13:21:54.712Z,17.79
2018-03-11T13:22:55.052Z,17.83
2018-03-11T13:23:54.695Z,17.88
2018-03-11T13:24:54.695Z,18.02
2018-03-11T13:25:54.677Z,18.03
2018-03-11T13:26:54.672Z,17.65
2018-03-11T13:27:54.661Z,17.49
2018-03-11T13:28:55.013Z,17.46
2018-03-11T13:29:54.643Z,17.56
2018-03-11T13:30:54.633Z,17.49
2018-03-11T13:31:54.620Z,17.52
2018-03-11T13:32:54.613Z,17.65
2018-03-11T13:33:54.656Z,17.65
2018-03-11T13:34:54.944Z,17.62
2018-03-11T13:35:54.634Z,17.65
2018-03-11T13:36:54.574Z,17.76